sensor_id;sensor_type;location;lat;lon;timestamp;P1;durP1;ratioP1;P2;durP2;ratioP2
76606;SDS011;65498;50.916;4.698;2023-01-23T00:01:26;13.53;;;9.38;;
76606;SDS011;65498;50.916;4.698;2023-01-23T00:03:57;13.20;;;9.03;;
76606;SDS011;65498;50.916;4.698;2023-01-23T00:06:25;15.25;;;10.20;;
76606;SDS011;65498;50.916;4.698;2023-01-23T00:08:54;13.58;;;8.98;;
76606;SDS011;65498;50.916;4.698;2023-01-23T00:11:27;14.05;;;9.23;;
76606;SDS011;65498;50.916;4.698;2023-01-23T00:13:53;13.40;;;9.28;;
76606;SDS011;65498;50.916;4.698;2023-01-23T00:16:22;13.85;;;8.70;;
76606;SDS011;65498;50.916;4.698;2023-01-23T00:18:51;11.33;;;7.35;;
76606;SDS011;65498;50.916;4.698;2023-01-23T00:21:19;11.28;;;8.08;;
76606;SDS011;65498;50.916;4.698;2023-01-23T00:23:50;11.85;;;8.45;;
76606;SDS011;65498;50.916;4.698;2023-01-23T00:26:23;12.90;;;8.10;;
76606;SDS011;65498;50.916;4.698;2023-01-23T00:28:53;11.93;;;8.48;;
76606;SDS011;65498;50.916;4.698;2023-01-23T00:31:23;12.03;;;8.08;;
76606;SDS011;65498;50.916;4.698;2023-01-23T00:33:52;12.35;;;7.90;;
76606;SDS011;65498;50.916;4.698;2023-01-23T00:36:21;15.30;;;7.95;;
76606;SDS011;65498;50.916;4.698;2023-01-23T00:38:50;11.80;;;8.00;;
76606;SDS011;65498;50.916;4.698;2023-01-23T00:41:18;11.50;;;8.23;;
76606;SDS011;65498;50.916;4.698;2023-01-23T00:43:45;11.70;;;8.03;;
76606;SDS011;65498;50.916;4.698;2023-01-23T00:46:13;11.20;;;7.97;;
76606;SDS011;65498;50.916;4.698;2023-01-23T00:48:41;12.13;;;8.60;;
76606;SDS011;65498;50.916;4.698;2023-01-23T00:51:08;11.70;;;8.08;;
76606;SDS011;65498;50.916;4.698;2023-01-23T00:53:36;11.55;;;7.70;;
76606;SDS011;65498;50.916;4.698;2023-01-23T00:56:04;13.15;;;8.83;;
76606;SDS011;65498;50.916;4.698;2023-01-23T00:58:32;12.70;;;8.55;;
76606;SDS011;65498;50.916;4.698;2023-01-23T01:00:59;12.43;;;8.53;;
76606;SDS011;65498;50.916;4.698;2023-01-23T01:03:27;11.48;;;7.92;;
76606;SDS011;65498;50.916;4.698;2023-01-23T01:05:54;13.95;;;9.33;;
76606;SDS011;65498;50.916;4.698;2023-01-23T01:08:22;13.38;;;8.78;;
76606;SDS011;65498;50.916;4.698;2023-01-23T01:10:50;16.25;;;8.73;;
76606;SDS011;65498;50.916;4.698;2023-01-23T01:13:18;21.65;;;9.35;;
76606;SDS011;65498;50.916;4.698;2023-01-23T01:15:49;15.98;;;9.78;;
76606;SDS011;65498;50.916;4.698;2023-01-23T01:18:18;15.75;;;8.88;;
76606;SDS011;65498;50.916;4.698;2023-01-23T01:20:47;16.27;;;9.75;;
76606;SDS011;65498;50.916;4.698;2023-01-23T01:23:15;17.00;;;9.13;;
76606;SDS011;65498;50.916;4.698;2023-01-23T01:25:43;17.12;;;9.93;;
76606;SDS011;65498;50.916;4.698;2023-01-23T01:28:11;16.73;;;9.00;;
76606;SDS011;65498;50.916;4.698;2023-01-23T01:30:39;14.80;;;9.20;;
76606;SDS011;65498;50.916;4.698;2023-01-23T01:33:07;17.10;;;9.48;;
76606;SDS011;65498;50.916;4.698;2023-01-23T01:35:37;16.07;;;9.00;;
76606;SDS011;65498;50.916;4.698;2023-01-23T01:38:06;14.78;;;8.78;;
76606;SDS011;65498;50.916;4.698;2023-01-23T01:40:34;14.98;;;9.08;;
76606;SDS011;65498;50.916;4.698;2023-01-23T01:43:07;13.95;;;8.38;;
76606;SDS011;65498;50.916;4.698;2023-01-23T01:51:39;14.25;;;8.35;;
76606;SDS011;65498;50.916;4.698;2023-01-23T01:54:15;14.13;;;8.18;;
76606;SDS011;65498;50.916;4.698;2023-01-23T01:56:53;16.77;;;9.30;;
76606;SDS011;65498;50.916;4.698;2023-01-23T01:59:21;15.38;;;8.83;;
76606;SDS011;65498;50.916;4.698;2023-01-23T02:01:52;13.25;;;8.08;;
76606;SDS011;65498;50.916;4.698;2023-01-23T02:04:21;15.23;;;9.43;;
76606;SDS011;65498;50.916;4.698;2023-01-23T02:06:49;13.38;;;8.25;;
76606;SDS011;65498;50.916;4.698;2023-01-23T02:09:23;13.68;;;8.20;;
76606;SDS011;65498;50.916;4.698;2023-01-23T02:11:52;14.87;;;8.90;;
76606;SDS011;65498;50.916;4.698;2023-01-23T02:14:19;15.55;;;8.63;;
76606;SDS011;65498;50.916;4.698;2023-01-23T02:16:49;13.35;;;8.45;;
76606;SDS011;65498;50.916;4.698;2023-01-23T02:19:24;13.22;;;8.38;;
76606;SDS011;65498;50.916;4.698;2023-01-23T02:21:48;17.20;;;8.60;;
76606;SDS011;65498;50.916;4.698;2023-01-23T02:24:32;14.33;;;8.68;;
76606;SDS011;65498;50.916;4.698;2023-01-23T02:27:01;13.95;;;8.25;;
76606;SDS011;65498;50.916;4.698;2023-01-23T02:29:39;13.70;;;8.58;;
76606;SDS011;65498;50.916;4.698;2023-01-23T02:32:09;15.32;;;9.88;;
76606;SDS011;65498;50.916;4.698;2023-01-23T02:34:37;15.05;;;8.33;;
76606;SDS011;65498;50.916;4.698;2023-01-23T02:37:05;15.65;;;8.53;;
76606;SDS011;65498;50.916;4.698;2023-01-23T02:39:34;14.38;;;8.95;;
76606;SDS011;65498;50.916;4.698;2023-01-23T02:42:02;15.72;;;9.48;;
76606;SDS011;65498;50.916;4.698;2023-01-23T02:44:30;14.25;;;8.13;;
76606;SDS011;65498;50.916;4.698;2023-01-23T02:47:03;13.88;;;8.13;;
76606;SDS011;65498;50.916;4.698;2023-01-23T02:49:29;13.65;;;8.70;;
76606;SDS011;65498;50.916;4.698;2023-01-23T02:51:57;12.85;;;7.92;;
76606;SDS011;65498;50.916;4.698;2023-01-23T02:54:25;13.22;;;8.88;;
76606;SDS011;65498;50.916;4.698;2023-01-23T02:56:53;13.32;;;8.40;;
76606;SDS011;65498;50.916;4.698;2023-01-23T02:59:21;13.85;;;7.95;;
76606;SDS011;65498;50.916;4.698;2023-01-23T03:02:07;14.18;;;8.18;;
76606;SDS011;65498;50.916;4.698;2023-01-23T03:04:35;12.75;;;8.13;;
76606;SDS011;65498;50.916;4.698;2023-01-23T03:07:02;11.97;;;7.75;;
76606;SDS011;65498;50.916;4.698;2023-01-23T03:09:30;15.70;;;9.03;;
76606;SDS011;65498;50.916;4.698;2023-01-23T03:11:58;12.75;;;7.90;;
76606;SDS011;65498;50.916;4.698;2023-01-23T03:14:25;14.63;;;8.53;;
76606;SDS011;65498;50.916;4.698;2023-01-23T03:16:54;13.80;;;8.37;;
76606;SDS011;65498;50.916;4.698;2023-01-23T03:19:23;12.13;;;7.33;;
76606;SDS011;65498;50.916;4.698;2023-01-23T03:21:52;13.32;;;8.38;;
76606;SDS011;65498;50.916;4.698;2023-01-23T03:24:20;13.93;;;8.33;;
76606;SDS011;65498;50.916;4.698;2023-01-23T03:26:48;13.62;;;8.23;;
76606;SDS011;65498;50.916;4.698;2023-01-23T03:29:18;13.80;;;8.17;;
76606;SDS011;65498;50.916;4.698;2023-01-23T03:32:06;14.43;;;8.50;;
76606;SDS011;65498;50.916;4.698;2023-01-23T03:34:35;12.82;;;8.08;;
76606;SDS011;65498;50.916;4.698;2023-01-23T03:37:03;12.75;;;7.45;;
76606;SDS011;65498;50.916;4.698;2023-01-23T03:39:32;12.50;;;7.53;;
76606;SDS011;65498;50.916;4.698;2023-01-23T03:42:18;13.78;;;8.83;;
76606;SDS011;65498;50.916;4.698;2023-01-23T03:44:46;10.95;;;7.70;;
76606;SDS011;65498;50.916;4.698;2023-01-23T03:47:14;11.57;;;7.67;;
76606;SDS011;65498;50.916;4.698;2023-01-23T03:49:41;14.20;;;8.68;;
76606;SDS011;65498;50.916;4.698;2023-01-23T03:52:09;13.22;;;7.80;;
76606;SDS011;65498;50.916;4.698;2023-01-23T03:54:37;13.03;;;9.08;;
76606;SDS011;65498;50.916;4.698;2023-01-23T03:57:04;12.53;;;7.85;;
76606;SDS011;65498;50.916;4.698;2023-01-23T03:59:32;12.73;;;8.28;;
76606;SDS011;65498;50.916;4.698;2023-01-23T04:01:59;12.70;;;8.23;;
76606;SDS011;65498;50.916;4.698;2023-01-23T04:04:29;11.48;;;7.47;;
76606;SDS011;65498;50.916;4.698;2023-01-23T04:06:58;13.70;;;7.77;;
76606;SDS011;65498;50.916;4.698;2023-01-23T04:09:26;13.00;;;7.58;;
76606;SDS011;65498;50.916;4.698;2023-01-23T04:11:53;12.95;;;8.93;;
76606;SDS011;65498;50.916;4.698;2023-01-23T04:14:22;12.55;;;8.25;;
76606;SDS011;65498;50.916;4.698;2023-01-23T04:16:51;12.65;;;7.95;;
76606;SDS011;65498;50.916;4.698;2023-01-23T04:19:19;12.10;;;8.03;;
76606;SDS011;65498;50.916;4.698;2023-01-23T04:21:46;13.83;;;8.80;;
76606;SDS011;65498;50.916;4.698;2023-01-23T04:24:15;11.85;;;8.00;;
76606;SDS011;65498;50.916;4.698;2023-01-23T04:26:43;13.78;;;8.75;;
76606;SDS011;65498;50.916;4.698;2023-01-23T04:29:10;12.40;;;7.90;;
76606;SDS011;65498;50.916;4.698;2023-01-23T04:31:38;14.35;;;8.18;;
76606;SDS011;65498;50.916;4.698;2023-01-23T04:34:06;13.35;;;8.70;;
76606;SDS011;65498;50.916;4.698;2023-01-23T04:36:33;12.78;;;8.65;;
76606;SDS011;65498;50.916;4.698;2023-01-23T04:39:01;13.22;;;8.35;;
76606;SDS011;65498;50.916;4.698;2023-01-23T04:41:29;14.07;;;8.83;;
76606;SDS011;65498;50.916;4.698;2023-01-23T04:43:58;14.78;;;8.30;;
76606;SDS011;65498;50.916;4.698;2023-01-23T04:46:27;13.05;;;8.70;;
76606;SDS011;65498;50.916;4.698;2023-01-23T04:48:55;12.68;;;8.15;;
76606;SDS011;65498;50.916;4.698;2023-01-23T04:51:22;13.20;;;7.95;;
76606;SDS011;65498;50.916;4.698;2023-01-23T04:53:50;12.68;;;8.18;;
76606;SDS011;65498;50.916;4.698;2023-01-23T04:56:17;12.23;;;8.08;;
76606;SDS011;65498;50.916;4.698;2023-01-23T04:58:45;17.07;;;8.40;;
76606;SDS011;65498;50.916;4.698;2023-01-23T05:01:14;11.27;;;7.90;;
76606;SDS011;65498;50.916;4.698;2023-01-23T05:03:43;13.20;;;8.50;;
76606;SDS011;65498;50.916;4.698;2023-01-23T05:06:11;13.90;;;8.53;;
76606;SDS011;65498;50.916;4.698;2023-01-23T05:08:38;15.58;;;9.38;;
76606;SDS011;65498;50.916;4.698;2023-01-23T05:11:06;12.53;;;8.03;;
76606;SDS011;65498;50.916;4.698;2023-01-23T05:13:33;13.20;;;8.20;;
76606;SDS011;65498;50.916;4.698;2023-01-23T05:16:01;13.55;;;8.33;;
76606;SDS011;65498;50.916;4.698;2023-01-23T05:18:29;12.65;;;7.58;;
76606;SDS011;65498;50.916;4.698;2023-01-23T05:20:56;14.65;;;9.15;;
76606;SDS011;65498;50.916;4.698;2023-01-23T05:23:24;13.80;;;8.68;;
76606;SDS011;65498;50.916;4.698;2023-01-23T05:25:52;14.47;;;8.80;;
76606;SDS011;65498;50.916;4.698;2023-01-23T05:28:19;14.07;;;8.55;;
76606;SDS011;65498;50.916;4.698;2023-01-23T05:30:47;15.05;;;9.15;;
76606;SDS011;65498;50.916;4.698;2023-01-23T05:33:14;15.23;;;8.63;;
76606;SDS011;65498;50.916;4.698;2023-01-23T05:35:42;14.90;;;8.73;;
76606;SDS011;65498;50.916;4.698;2023-01-23T05:38:11;14.58;;;9.00;;
76606;SDS011;65498;50.916;4.698;2023-01-23T05:40:39;15.25;;;9.25;;
76606;SDS011;65498;50.916;4.698;2023-01-23T05:43:08;13.13;;;8.58;;
76606;SDS011;65498;50.916;4.698;2023-01-23T05:45:42;12.88;;;7.97;;
76606;SDS011;65498;50.916;4.698;2023-01-23T05:48:09;13.78;;;8.50;;
76606;SDS011;65498;50.916;4.698;2023-01-23T05:50:37;15.32;;;8.43;;
76606;SDS011;65498;50.916;4.698;2023-01-23T05:53:04;14.90;;;8.83;;
76606;SDS011;65498;50.916;4.698;2023-01-23T05:55:32;15.45;;;9.53;;
76606;SDS011;65498;50.916;4.698;2023-01-23T05:57:59;15.95;;;9.60;;
76606;SDS011;65498;50.916;4.698;2023-01-23T06:00:27;15.83;;;9.20;;
76606;SDS011;65498;50.916;4.698;2023-01-23T06:02:55;13.95;;;8.55;;
76606;SDS011;65498;50.916;4.698;2023-01-23T06:05:22;14.43;;;8.75;;
76606;SDS011;65498;50.916;4.698;2023-01-23T06:07:50;14.43;;;8.45;;
76606;SDS011;65498;50.916;4.698;2023-01-23T06:10:17;15.38;;;10.03;;
76606;SDS011;65498;50.916;4.698;2023-01-23T06:12:45;14.50;;;9.18;;
76606;SDS011;65498;50.916;4.698;2023-01-23T06:15:12;14.85;;;9.43;;
76606;SDS011;65498;50.916;4.698;2023-01-23T06:17:40;13.98;;;8.53;;
76606;SDS011;65498;50.916;4.698;2023-01-23T06:20:08;17.00;;;9.70;;
76606;SDS011;65498;50.916;4.698;2023-01-23T06:22:37;13.58;;;8.13;;
76606;SDS011;65498;50.916;4.698;2023-01-23T06:25:05;15.80;;;8.95;;
76606;SDS011;65498;50.916;4.698;2023-01-23T06:27:33;14.65;;;8.60;;
76606;SDS011;65498;50.916;4.698;2023-01-23T06:30:00;14.70;;;8.70;;
76606;SDS011;65498;50.916;4.698;2023-01-23T06:32:28;17.35;;;9.58;;
76606;SDS011;65498;50.916;4.698;2023-01-23T06:34:55;16.27;;;9.50;;
76606;SDS011;65498;50.916;4.698;2023-01-23T06:37:23;18.40;;;9.83;;
76606;SDS011;65498;50.916;4.698;2023-01-23T06:39:50;14.53;;;9.08;;
76606;SDS011;65498;50.916;4.698;2023-01-23T06:42:18;14.70;;;8.60;;
76606;SDS011;65498;50.916;4.698;2023-01-23T06:44:45;15.25;;;9.50;;
76606;SDS011;65498;50.916;4.698;2023-01-23T06:47:13;14.95;;;8.68;;
76606;SDS011;65498;50.916;4.698;2023-01-23T06:49:43;15.68;;;9.58;;
76606;SDS011;65498;50.916;4.698;2023-01-23T06:52:11;14.70;;;10.00;;
76606;SDS011;65498;50.916;4.698;2023-01-23T06:57:25;16.02;;;9.80;;
76606;SDS011;65498;50.916;4.698;2023-01-23T06:59:53;13.93;;;8.53;;
76606;SDS011;65498;50.916;4.698;2023-01-23T07:02:20;13.68;;;9.10;;
76606;SDS011;65498;50.916;4.698;2023-01-23T07:04:48;14.23;;;8.48;;
76606;SDS011;65498;50.916;4.698;2023-01-23T07:07:15;14.13;;;9.03;;
76606;SDS011;65498;50.916;4.698;2023-01-23T07:09:43;13.90;;;8.78;;
76606;SDS011;65498;50.916;4.698;2023-01-23T07:12:11;16.10;;;9.15;;
76606;SDS011;65498;50.916;4.698;2023-01-23T07:14:38;14.98;;;8.70;;
76606;SDS011;65498;50.916;4.698;2023-01-23T07:17:06;14.28;;;9.15;;
76606;SDS011;65498;50.916;4.698;2023-01-23T07:19:34;14.00;;;8.28;;
76606;SDS011;65498;50.916;4.698;2023-01-23T07:22:01;14.98;;;9.03;;
76606;SDS011;65498;50.916;4.698;2023-01-23T07:24:29;16.07;;;9.68;;
76606;SDS011;65498;50.916;4.698;2023-01-23T07:26:57;14.38;;;8.75;;
76606;SDS011;65498;50.916;4.698;2023-01-23T07:29:24;15.60;;;9.23;;
76606;SDS011;65498;50.916;4.698;2023-01-23T07:31:52;16.35;;;9.83;;
76606;SDS011;65498;50.916;4.698;2023-01-23T07:34:20;15.58;;;8.80;;
76606;SDS011;65498;50.916;4.698;2023-01-23T07:36:47;15.58;;;8.88;;
76606;SDS011;65498;50.916;4.698;2023-01-23T07:39:15;15.25;;;9.05;;
76606;SDS011;65498;50.916;4.698;2023-01-23T07:41:42;13.30;;;8.18;;
76606;SDS011;65498;50.916;4.698;2023-01-23T07:44:18;16.97;;;9.83;;
76606;SDS011;65498;50.916;4.698;2023-01-23T07:46:43;13.70;;;8.68;;
76606;SDS011;65498;50.916;4.698;2023-01-23T07:49:11;16.75;;;9.05;;
76606;SDS011;65498;50.916;4.698;2023-01-23T07:51:39;15.03;;;9.18;;
76606;SDS011;65498;50.916;4.698;2023-01-23T07:54:07;15.90;;;9.03;;
76606;SDS011;65498;50.916;4.698;2023-01-23T07:56:35;15.03;;;9.20;;
76606;SDS011;65498;50.916;4.698;2023-01-23T07:59:03;15.58;;;8.73;;
76606;SDS011;65498;50.916;4.698;2023-01-23T08:01:31;14.68;;;8.53;;
76606;SDS011;65498;50.916;4.698;2023-01-23T08:03:58;17.02;;;9.80;;
76606;SDS011;65498;50.916;4.698;2023-01-23T08:06:26;18.32;;;8.60;;
76606;SDS011;65498;50.916;4.698;2023-01-23T08:08:54;15.13;;;8.43;;
76606;SDS011;65498;50.916;4.698;2023-01-23T08:11:21;14.55;;;9.13;;
76606;SDS011;65498;50.916;4.698;2023-01-23T08:13:51;15.10;;;9.23;;
76606;SDS011;65498;50.916;4.698;2023-01-23T08:16:19;14.98;;;8.83;;
76606;SDS011;65498;50.916;4.698;2023-01-23T08:18:46;14.55;;;8.25;;
76606;SDS011;65498;50.916;4.698;2023-01-23T08:21:14;13.58;;;8.73;;
76606;SDS011;65498;50.916;4.698;2023-01-23T08:23:42;15.28;;;8.28;;
76606;SDS011;65498;50.916;4.698;2023-01-23T08:26:11;15.58;;;8.55;;
76606;SDS011;65498;50.916;4.698;2023-01-23T08:28:41;16.15;;;9.18;;
76606;SDS011;65498;50.916;4.698;2023-01-23T08:31:09;14.78;;;8.10;;
76606;SDS011;65498;50.916;4.698;2023-01-23T08:33:39;15.63;;;9.75;;
76606;SDS011;65498;50.916;4.698;2023-01-23T08:36:07;16.23;;;9.60;;
76606;SDS011;65498;50.916;4.698;2023-01-23T08:38:34;14.38;;;8.68;;
76606;SDS011;65498;50.916;4.698;2023-01-23T08:41:02;14.13;;;8.63;;
76606;SDS011;65498;50.916;4.698;2023-01-23T08:43:31;14.87;;;8.10;;
76606;SDS011;65498;50.916;4.698;2023-01-23T08:45:58;14.85;;;9.78;;
76606;SDS011;65498;50.916;4.698;2023-01-23T08:48:26;14.90;;;8.23;;
76606;SDS011;65498;50.916;4.698;2023-01-23T08:51:02;16.32;;;9.60;;
76606;SDS011;65498;50.916;4.698;2023-01-23T08:53:27;15.63;;;8.80;;
76606;SDS011;65498;50.916;4.698;2023-01-23T08:56:02;13.83;;;8.88;;
76606;SDS011;65498;50.916;4.698;2023-01-23T08:58:32;16.27;;;8.65;;
76606;SDS011;65498;50.916;4.698;2023-01-23T09:01:00;13.88;;;8.23;;
76606;SDS011;65498;50.916;4.698;2023-01-23T09:03:27;14.93;;;8.60;;
76606;SDS011;65498;50.916;4.698;2023-01-23T09:05:58;12.95;;;7.67;;
76606;SDS011;65498;50.916;4.698;2023-01-23T09:08:27;13.45;;;8.30;;
76606;SDS011;65498;50.916;4.698;2023-01-23T09:11:05;15.83;;;9.20;;
76606;SDS011;65498;50.916;4.698;2023-01-23T09:13:28;13.98;;;9.03;;
76606;SDS011;65498;50.916;4.698;2023-01-23T09:15:55;15.88;;;8.93;;
76606;SDS011;65498;50.916;4.698;2023-01-23T09:18:23;14.20;;;9.13;;
76606;SDS011;65498;50.916;4.698;2023-01-23T09:20:51;15.25;;;8.88;;
76606;SDS011;65498;50.916;4.698;2023-01-23T09:23:20;15.45;;;8.70;;
76606;SDS011;65498;50.916;4.698;2023-01-23T09:25:48;14.87;;;9.30;;
76606;SDS011;65498;50.916;4.698;2023-01-23T09:28:16;13.83;;;8.83;;
76606;SDS011;65498;50.916;4.698;2023-01-23T09:30:43;15.65;;;8.50;;
76606;SDS011;65498;50.916;4.698;2023-01-23T09:33:11;13.83;;;8.88;;
76606;SDS011;65498;50.916;4.698;2023-01-23T09:35:38;15.25;;;8.55;;
76606;SDS011;65498;50.916;4.698;2023-01-23T09:38:06;13.38;;;8.73;;
76606;SDS011;65498;50.916;4.698;2023-01-23T09:40:47;14.78;;;8.93;;
76606;SDS011;65498;50.916;4.698;2023-01-23T09:43:12;14.68;;;9.60;;
76606;SDS011;65498;50.916;4.698;2023-01-23T09:45:40;14.10;;;8.83;;
76606;SDS011;65498;50.916;4.698;2023-01-23T09:48:20;15.30;;;9.73;;
76606;SDS011;65498;50.916;4.698;2023-01-23T09:51:12;15.85;;;9.38;;
76606;SDS011;65498;50.916;4.698;2023-01-23T09:53:47;14.95;;;8.60;;
76606;SDS011;65498;50.916;4.698;2023-01-23T09:56:35;15.08;;;9.28;;
76606;SDS011;65498;50.916;4.698;2023-01-23T09:59:02;15.85;;;8.83;;
76606;SDS011;65498;50.916;4.698;2023-01-23T10:01:31;15.35;;;9.25;;
76606;SDS011;65498;50.916;4.698;2023-01-23T10:03:59;16.62;;;9.73;;
76606;SDS011;65498;50.916;4.698;2023-01-23T10:06:32;17.10;;;9.43;;
76606;SDS011;65498;50.916;4.698;2023-01-23T10:09:22;14.73;;;9.25;;
76606;SDS011;65498;50.916;4.698;2023-01-23T10:14:51;14.63;;;9.18;;
76606;SDS011;65498;50.916;4.698;2023-01-23T10:25:24;14.98;;;9.80;;
76606;SDS011;65498;50.916;4.698;2023-01-23T10:27:54;17.23;;;10.40;;
76606;SDS011;65498;50.916;4.698;2023-01-23T10:30:31;15.72;;;9.93;;
76606;SDS011;65498;50.916;4.698;2023-01-23T10:33:08;15.72;;;9.78;;
76606;SDS011;65498;50.916;4.698;2023-01-23T10:41:00;16.67;;;10.05;;
76606;SDS011;65498;50.916;4.698;2023-01-23T10:43:42;14.45;;;9.38;;
76606;SDS011;65498;50.916;4.698;2023-01-23T10:46:17;15.20;;;9.98;;
76606;SDS011;65498;50.916;4.698;2023-01-23T10:48:45;16.62;;;9.40;;
76606;SDS011;65498;50.916;4.698;2023-01-23T10:51:29;14.45;;;8.93;;
76606;SDS011;65498;50.916;4.698;2023-01-23T10:59:33;13.95;;;9.28;;
76606;SDS011;65498;50.916;4.698;2023-01-23T11:02:20;21.48;;;11.10;;
76606;SDS011;65498;50.916;4.698;2023-01-23T11:04:49;16.10;;;10.23;;
76606;SDS011;65498;50.916;4.698;2023-01-23T11:07:26;21.25;;;9.93;;
76606;SDS011;65498;50.916;4.698;2023-01-23T11:10:00;15.15;;;9.73;;
76606;SDS011;65498;50.916;4.698;2023-01-23T11:12:45;17.57;;;10.45;;
76606;SDS011;65498;50.916;4.698;2023-01-23T11:15:25;14.50;;;10.10;;
76606;SDS011;65498;50.916;4.698;2023-01-23T11:17:54;15.48;;;9.88;;
76606;SDS011;65498;50.916;4.698;2023-01-23T11:23:03;16.60;;;9.85;;
76606;SDS011;65498;50.916;4.698;2023-01-23T11:25:41;14.73;;;9.93;;
76606;SDS011;65498;50.916;4.698;2023-01-23T11:28:24;16.52;;;10.55;;
76606;SDS011;65498;50.916;4.698;2023-01-23T11:33:39;14.70;;;9.53;;
76606;SDS011;65498;50.916;4.698;2023-01-23T11:39:02;14.73;;;9.63;;
76606;SDS011;65498;50.916;4.698;2023-01-23T11:41:31;15.15;;;9.90;;
76606;SDS011;65498;50.916;4.698;2023-01-23T11:44:01;15.75;;;10.15;;
76606;SDS011;65498;50.916;4.698;2023-01-23T11:46:53;17.50;;;10.48;;
76606;SDS011;65498;50.916;4.698;2023-01-23T11:58:17;16.48;;;10.32;;
76606;SDS011;65498;50.916;4.698;2023-01-23T12:01:19;23.22;;;14.43;;
76606;SDS011;65498;50.916;4.698;2023-01-23T12:12:30;25.30;;;17.35;;
76606;SDS011;65498;50.916;4.698;2023-01-23T12:17:46;23.90;;;16.37;;
76606;SDS011;65498;50.916;4.698;2023-01-23T12:20:29;22.27;;;16.05;;
76606;SDS011;65498;50.916;4.698;2023-01-23T12:23:07;23.52;;;15.80;;
76606;SDS011;65498;50.916;4.698;2023-01-23T12:25:40;23.83;;;14.40;;
76606;SDS011;65498;50.916;4.698;2023-01-23T12:41:58;19.48;;;12.63;;
76606;SDS011;65498;50.916;4.698;2023-01-23T12:44:36;20.27;;;13.13;;
76606;SDS011;65498;50.916;4.698;2023-01-23T12:47:04;20.27;;;12.68;;
76606;SDS011;65498;50.916;4.698;2023-01-23T12:49:38;22.35;;;13.28;;
76606;SDS011;65498;50.916;4.698;2023-01-23T12:52:10;17.85;;;12.45;;
76606;SDS011;65498;50.916;4.698;2023-01-23T12:54:42;18.55;;;11.75;;
76606;SDS011;65498;50.916;4.698;2023-01-23T12:57:14;17.98;;;11.57;;
76606;SDS011;65498;50.916;4.698;2023-01-23T12:59:53;19.90;;;13.10;;
76606;SDS011;65498;50.916;4.698;2023-01-23T13:02:31;16.85;;;11.28;;
76606;SDS011;65498;50.916;4.698;2023-01-23T13:05:22;16.73;;;11.10;;
76606;SDS011;65498;50.916;4.698;2023-01-23T13:07:54;15.32;;;11.03;;
76606;SDS011;65498;50.916;4.698;2023-01-23T13:13:05;16.73;;;11.05;;
76606;SDS011;65498;50.916;4.698;2023-01-23T13:15:33;15.53;;;10.68;;
76606;SDS011;65498;50.916;4.698;2023-01-23T13:18:01;16.62;;;11.10;;
76606;SDS011;65498;50.916;4.698;2023-01-23T13:20:33;16.23;;;10.58;;
76606;SDS011;65498;50.916;4.698;2023-01-23T13:23:31;15.85;;;10.35;;
76606;SDS011;65498;50.916;4.698;2023-01-23T13:28:48;16.80;;;10.40;;
76606;SDS011;65498;50.916;4.698;2023-01-23T13:31:24;15.93;;;11.18;;
76606;SDS011;65498;50.916;4.698;2023-01-23T13:34:51;14.85;;;10.08;;
76606;SDS011;65498;50.916;4.698;2023-01-23T13:36:48;16.55;;;10.58;;
76606;SDS011;65498;50.916;4.698;2023-01-23T13:41:49;14.35;;;9.95;;
76606;SDS011;65498;50.916;4.698;2023-01-23T13:44:25;16.07;;;10.43;;
76606;SDS011;65498;50.916;4.698;2023-01-23T13:49:59;15.10;;;10.38;;
76606;SDS011;65498;50.916;4.698;2023-01-23T13:52:28;15.25;;;10.23;;
76606;SDS011;65498;50.916;4.698;2023-01-23T13:55:25;14.65;;;9.95;;
76606;SDS011;65498;50.916;4.698;2023-01-23T13:58:19;15.15;;;10.40;;
76606;SDS011;65498;50.916;4.698;2023-01-23T14:01:00;16.25;;;11.05;;
76606;SDS011;65498;50.916;4.698;2023-01-23T14:03:48;14.28;;;9.45;;
76606;SDS011;65498;50.916;4.698;2023-01-23T14:06:35;13.80;;;9.93;;
76606;SDS011;65498;50.916;4.698;2023-01-23T14:09:17;14.68;;;10.08;;
76606;SDS011;65498;50.916;4.698;2023-01-23T14:11:59;15.98;;;9.93;;
76606;SDS011;65498;50.916;4.698;2023-01-23T14:14:34;14.63;;;9.80;;
76606;SDS011;65498;50.916;4.698;2023-01-23T14:17:21;14.73;;;9.88;;
76606;SDS011;65498;50.916;4.698;2023-01-23T14:22:26;16.00;;;10.82;;
76606;SDS011;65498;50.916;4.698;2023-01-23T14:24:53;14.90;;;9.88;;
76606;SDS011;65498;50.916;4.698;2023-01-23T14:30:00;16.62;;;11.00;;
76606;SDS011;65498;50.916;4.698;2023-01-23T14:32:30;14.83;;;10.30;;
76606;SDS011;65498;50.916;4.698;2023-01-23T14:34:59;13.28;;;9.60;;
76606;SDS011;65498;50.916;4.698;2023-01-23T14:37:26;16.62;;;10.23;;
76606;SDS011;65498;50.916;4.698;2023-01-23T14:39:56;13.53;;;9.23;;
76606;SDS011;65498;50.916;4.698;2023-01-23T14:42:27;17.00;;;10.13;;
76606;SDS011;65498;50.916;4.698;2023-01-23T14:44:57;14.15;;;10.20;;
76606;SDS011;65498;50.916;4.698;2023-01-23T14:49:57;14.15;;;9.98;;
76606;SDS011;65498;50.916;4.698;2023-01-23T14:52:27;14.63;;;9.90;;
76606;SDS011;65498;50.916;4.698;2023-01-23T14:57:24;13.25;;;9.35;;
76606;SDS011;65498;50.916;4.698;2023-01-23T14:59:56;13.43;;;10.05;;
76606;SDS011;65498;50.916;4.698;2023-01-23T15:02:33;14.05;;;9.90;;
76606;SDS011;65498;50.916;4.698;2023-01-23T15:05:08;14.93;;;9.95;;
76606;SDS011;65498;50.916;4.698;2023-01-23T15:07:41;14.45;;;9.60;;
76606;SDS011;65498;50.916;4.698;2023-01-23T15:10:28;14.85;;;10.00;;
76606;SDS011;65498;50.916;4.698;2023-01-23T15:13:18;14.58;;;10.28;;
76606;SDS011;65498;50.916;4.698;2023-01-23T15:15:54;16.10;;;9.65;;
76606;SDS011;65498;50.916;4.698;2023-01-23T15:18:30;14.95;;;10.65;;
76606;SDS011;65498;50.916;4.698;2023-01-23T15:21:00;13.53;;;9.50;;
76606;SDS011;65498;50.916;4.698;2023-01-23T15:23:33;12.90;;;9.18;;
76606;SDS011;65498;50.916;4.698;2023-01-23T15:28:48;13.78;;;9.50;;
76606;SDS011;65498;50.916;4.698;2023-01-23T15:36:51;14.80;;;9.83;;
76606;SDS011;65498;50.916;4.698;2023-01-23T15:42:18;14.35;;;9.78;;
76606;SDS011;65498;50.916;4.698;2023-01-23T15:44:31;13.48;;;9.33;;
76606;SDS011;65498;50.916;4.698;2023-01-23T15:46:58;14.98;;;9.08;;
76606;SDS011;65498;50.916;4.698;2023-01-23T15:49:28;14.47;;;9.63;;
76606;SDS011;65498;50.916;4.698;2023-01-23T15:51:58;13.05;;;9.23;;
76606;SDS011;65498;50.916;4.698;2023-01-23T15:54:45;13.72;;;8.75;;
76606;SDS011;65498;50.916;4.698;2023-01-23T15:57:13;13.35;;;8.90;;
76606;SDS011;65498;50.916;4.698;2023-01-23T15:59:40;12.90;;;8.68;;
76606;SDS011;65498;50.916;4.698;2023-01-23T16:02:15;12.90;;;8.55;;
76606;SDS011;65498;50.916;4.698;2023-01-23T16:04:44;12.85;;;8.90;;
76606;SDS011;65498;50.916;4.698;2023-01-23T16:07:20;13.68;;;9.20;;
76606;SDS011;65498;50.916;4.698;2023-01-23T16:09:49;13.20;;;9.00;;
76606;SDS011;65498;50.916;4.698;2023-01-23T16:12:19;14.07;;;9.35;;
76606;SDS011;65498;50.916;4.698;2023-01-23T16:14:50;11.55;;;8.40;;
76606;SDS011;65498;50.916;4.698;2023-01-23T16:17:18;12.60;;;8.60;;
76606;SDS011;65498;50.916;4.698;2023-01-23T16:19:46;13.00;;;8.08;;
76606;SDS011;65498;50.916;4.698;2023-01-23T16:22:23;13.28;;;8.78;;
76606;SDS011;65498;50.916;4.698;2023-01-23T16:24:51;12.40;;;8.65;;
76606;SDS011;65498;50.916;4.698;2023-01-23T16:27:19;12.37;;;8.60;;
76606;SDS011;65498;50.916;4.698;2023-01-23T16:29:52;13.65;;;8.85;;
76606;SDS011;65498;50.916;4.698;2023-01-23T16:32:21;12.28;;;8.28;;
76606;SDS011;65498;50.916;4.698;2023-01-23T16:34:49;11.90;;;8.00;;
76606;SDS011;65498;50.916;4.698;2023-01-23T16:37:17;11.97;;;8.38;;
76606;SDS011;65498;50.916;4.698;2023-01-23T16:39:45;11.75;;;8.40;;